This is the latest recevied weather packets stored in our database for station/object AD8PA-13. If no packets are shown the sender has not sent any weather packets the latest 1 day(s).
| Time | Temp. | Humidity | Pressure | Rain* | Wind** | Luminosity | Snow |
|---|---|---|---|---|---|---|---|
| 1778110674 | 10.56° C | 47% | 1013.1 hPa | 0 mm | - | - | - |
| 1778109774 | 11.11° C | 48% | 1013.5 hPa | 0 mm | - | - | - |
| 1778108872 | 11.11° C | 46% | 1013.1 hPa | 0 mm | - | - | - |
| 1778107968 | 11.67° C | 45% | 1013.2 hPa | 0 mm | - | - | - |
| 1778107064 | 11.67° C | 47% | 1013.2 hPa | 0 mm | - | - | - |
| 1778102550 | 11.67° C | 45% | 1013.2 hPa | 0 mm | - | - | - |
| 1778101645 | 11.67° C | 47% | 1013.2 hPa | 0 mm | - | - | - |
| 1778100740 | 11.67° C | 44% | 1013.2 hPa | 0 mm | - | - | - |
| 1778098031 | 12.78° C | 47% | 1013.5 hPa | 0 mm | - | - | - |
| 1778097127 | 11.67° C | 47% | 1013.6 hPa | 0 mm | - | - | - |
| 1778095320 | 11.67° C | 48% | 1013.7 hPa | 0 mm | - | - | - |
| 1778093512 | 11.67° C | 45% | 1013.5 hPa | 0 mm | - | - | - |
| 1778088997 | 10.56° C | 50% | 1013.9 hPa | 0 mm | - | - | - |
| 1778088093 | 11.11° C | 52% | 1013.9 hPa | 0 mm | - | - | - |
| 1778081009 | 11.67° C | 46% | 1013.2 hPa | 0 mm | - | - | - |
| 1778077399 | 10.56° C | 62% | 1012.6 hPa | 0 mm | - | - | - |
| 1778066571 | 6.67° C | 74% | 1010.8 hPa | 0 mm | - | - | - |
| 1778065669 | 6.67° C | 72% | 1010.3 hPa | 0 mm | - | - | - |
| 1778063864 | 7.22° C | 68% | 1010.2 hPa | 0 mm | - | - | - |
| 1778059355 | 7.78° C | 63% | 1009.7 hPa | 0 mm | - | - | - |
| 1778057548 | 7.78° C | 62% | 1009.1 hPa | 0 mm | - | - | - |
| 1778056644 | 8.33° C | 61% | 1009.6 hPa | 0 mm | - | - | - |
| 1778055740 | 8.33° C | 61% | 1009.3 hPa | 0 mm | - | - | - |
| 1778054839 | 8.33° C | 59% | 1009.2 hPa | 0 mm | - | - | - |
| 1778053935 | 8.33° C | 59% | 1009.2 hPa | 0 mm | - | - | - |
* Rain latest hour (hover to see other rain measurements)
** Current wind speed in m/s (hover to see current wind gust speed)